Time;durP1;ratioP1;P1;durP2;ratioP2;P2;SDS_P1;SDS_P2;PMS_P1;PMS_P2;Temp;Humidity;BMP_temperature;BMP_pressure;BME280_temperature;BME280_humidity;BME280_pressure;Samples;Min_cycle;Max_cycle;Signal;HPM_P1;HPM_P2
2023/10/20 00:01:30;;;;;;;6.57;3.95;;;15.60;99.90;;;15.73;100.00;98031.41;5200552;28;20538;-48
2023/10/20 00:04:03;;;;;;;6.63;3.83;;;15.60;99.90;;;15.76;100.00;98030.44;5196685;28;20509;-47
2023/10/20 00:06:38;;;;;;;6.80;3.72;;;15.70;99.90;;;15.75;100.00;98036.63;5191659;28;20054;-48
2023/10/20 00:09:14;;;;;;;10.55;4.53;;;15.70;99.90;;;15.75;100.00;98039.25;5187571;28;19921;-47
2023/10/20 00:11:47;;;;;;;5.75;3.50;;;15.70;99.90;;;15.77;100.00;98031.31;5199804;28;20050;-48
2023/10/20 00:14:20;;;;;;;7.03;4.22;;;15.70;99.90;;;15.78;100.00;98026.03;5202418;28;20409;-48
2023/10/20 00:16:57;;;;;;;7.63;4.18;;;15.70;99.90;;;15.77;100.00;98021.66;5202652;28;20061;-48
2023/10/20 00:19:29;;;;;;;6.68;4.15;;;15.70;99.90;;;15.78;100.00;98030.41;5197110;28;20046;-48
2023/10/20 00:22:01;;;;;;;7.90;4.20;;;15.70;99.90;;;15.80;100.00;98018.97;5205468;28;20056;-48
2023/10/20 00:24:34;;;;;;;9.38;4.68;;;15.70;99.90;;;15.78;100.00;98014.66;5201247;28;20042;-47
2023/10/20 00:27:06;;;;;;;7.40;3.92;;;15.70;99.90;;;15.78;100.00;98012.91;5209394;28;20077;-47
2023/10/20 00:29:39;;;;;;;5.95;3.58;;;15.70;99.90;;;15.77;100.00;98003.28;5192474;28;20042;-48
2023/10/20 00:32:13;;;;;;;6.65;3.72;;;15.70;99.90;;;15.78;100.00;97996.25;5195336;28;20049;-48
2023/10/20 00:34:45;;;;;;;6.85;3.78;;;15.70;99.90;;;15.77;100.00;98000.66;5199589;28;20053;-48
2023/10/20 00:37:18;;;;;;;7.78;4.07;;;15.70;99.90;;;15.76;100.00;98009.44;5204847;28;20041;-48
2023/10/20 00:39:51;;;;;;;8.15;3.95;;;15.70;99.90;;;15.77;100.00;98000.66;5194701;28;20060;-47
2023/10/20 00:42:23;;;;;;;7.43;3.88;;;15.60;99.90;;;15.78;100.00;97997.16;5203002;28;20688;-47
2023/10/20 00:44:56;;;;;;;5.90;3.90;;;15.70;99.90;;;15.78;100.00;97976.16;5196435;28;20060;-47
2023/10/20 00:47:32;;;;;;;7.50;3.65;;;15.70;99.90;;;15.78;100.00;97975.25;5202847;28;20076;-47
2023/10/20 00:50:08;;;;;;;6.72;3.88;;;15.70;99.90;;;15.77;100.00;97969.16;5199606;28;20464;-47
2023/10/20 00:52:45;;;;;;;7.72;3.88;;;15.70;99.90;;;15.77;100.00;97953.38;5191792;28;20049;-47
2023/10/20 00:55:20;;;;;;;8.75;3.72;;;15.70;99.90;;;15.77;100.00;97942.88;5195671;28;20045;-47
2023/10/20 00:57:55;;;;;;;5.97;3.30;;;15.70;99.90;;;15.76;100.00;97938.53;5198095;28;20052;-47
2023/10/20 01:00:28;;;;;;;5.30;3.40;;;15.70;99.90;;;15.76;100.00;97925.41;5201373;28;20053;-47
2023/10/20 01:03:02;;;;;;;6.50;3.90;;;15.70;99.90;;;15.76;100.00;97925.41;5196039;28;20570;-48
2023/10/20 01:05:36;;;;;;;5.43;3.70;;;15.70;99.90;;;15.75;100.00;97923.69;5195274;28;20235;-47
2023/10/20 01:08:09;;;;;;;5.55;3.42;;;15.70;99.90;;;15.77;100.00;97918.41;5196239;28;20129;-48
2023/10/20 01:10:45;;;;;;;5.97;3.78;;;15.70;99.90;;;15.77;100.00;97919.25;5195173;28;20064;-49
2023/10/20 01:13:17;;;;;;;7.13;3.88;;;15.70;99.90;;;15.77;100.00;97916.63;5195453;28;20041;-47
2023/10/20 01:15:50;;;;;;;5.00;3.03;;;15.70;99.90;;;15.81;100.00;97918.25;5197807;28;20160;-48
2023/10/20 01:18:25;;;;;;;7.68;3.17;;;15.70;99.90;;;15.81;100.00;97920.88;5197585;28;20148;-49
2023/10/20 01:21:00;;;;;;;6.15;2.72;;;15.70;99.90;;;15.83;100.00;97923.44;5196858;28;20057;-47
2023/10/20 01:23:33;;;;;;;5.72;2.63;;;15.70;99.90;;;15.84;100.00;97933.91;5200243;28;20053;-47
2023/10/20 01:26:07;;;;;;;5.22;2.97;;;15.70;99.90;;;15.88;100.00;97919.78;5193545;28;20049;-47
2023/10/20 01:28:43;;;;;;;5.05;2.80;;;15.80;99.90;;;15.88;100.00;97917.16;5198744;28;20047;-48
2023/10/20 01:31:16;;;;;;;6.97;2.88;;;15.80;99.90;;;15.88;100.00;97919.78;5196699;28;20053;-47
2023/10/20 01:33:49;;;;;;;4.25;2.75;;;15.80;99.90;;;15.90;100.00;97909.22;5204591;28;20049;-47
2023/10/20 01:36:23;;;;;;;4.40;2.55;;;15.80;99.90;;;15.93;100.00;97907.38;5198637;28;20048;-47
2023/10/20 01:38:59;;;;;;;3.97;2.50;;;15.80;99.90;;;15.93;100.00;97904.72;5200448;28;20053;-48
2023/10/20 01:41:33;;;;;;;3.90;2.33;;;15.80;99.90;;;15.94;100.00;97909.06;5203775;28;20102;-48
2023/10/20 01:44:05;;;;;;;4.93;2.95;;;15.80;99.90;;;15.94;100.00;97906.44;5202935;28;20054;-48
2023/10/20 01:46:38;;;;;;;4.05;2.45;;;15.80;99.90;;;15.93;100.00;97902.09;5193858;28;20556;-47
2023/10/20 01:49:10;;;;;;;5.25;3.00;;;15.80;99.90;;;15.93;100.00;97891.59;5204332;28;20053;-47
2023/10/20 01:51:46;;;;;;;5.32;2.80;;;15.80;99.90;;;15.95;100.00;97899.44;5208506;28;20052;-49
2023/10/20 01:54:18;;;;;;;4.53;2.50;;;15.90;99.90;;;15.94;100.00;97889.84;5199727;28;20136;-47
2023/10/20 01:56:55;;;;;;;3.75;2.40;;;15.80;99.90;;;15.95;100.00;97881.03;5199756;28;20053;-48
2023/10/20 01:59:30;;;;;;;5.03;2.92;;;15.80;99.90;;;15.96;100.00;97875.72;5201359;28;20526;-47
2023/10/20 02:02:03;;;;;;;4.03;2.40;;;15.90;99.90;;;15.93;100.00;97853.97;5196780;28;20049;-48
2023/10/20 02:04:36;;;;;;;3.78;2.22;;;15.80;99.90;;;15.92;100.00;97847.00;5200048;28;20539;-48
2023/10/20 02:07:09;;;;;;;4.47;2.08;;;15.80;99.90;;;15.92;100.00;97844.38;5198855;28;20049;-48
2023/10/20 02:09:41;;;;;;;4.57;2.05;;;15.80;99.90;;;15.91;100.00;97832.13;5198392;28;20054;-47
2023/10/20 02:12:15;;;;;;;3.83;2.30;;;15.80;99.90;;;15.89;100.00;97832.19;5201388;28;20052;-47
2023/10/20 02:14:47;;;;;;;3.63;2.40;;;15.80;99.90;;;15.88;100.00;97827.84;5195367;28;20045;-48
2023/10/20 02:17:20;;;;;;;3.10;2.13;;;15.80;99.90;;;15.86;100.00;97821.81;5205407;28;20064;-48
2023/10/20 02:19:53;;;;;;;3.53;2.55;;;15.80;99.90;;;15.86;100.00;97816.56;5203538;28;20049;-47
2023/10/20 02:22:26;;;;;;;5.25;2.22;;;15.80;99.90;;;15.86;100.00;97806.03;5205563;28;20053;-47
2023/10/20 02:24:58;;;;;;;2.83;2.20;;;15.80;99.90;;;15.87;100.00;97807.75;5206570;28;20045;-47
2023/10/20 02:27:32;;;;;;;3.03;2.00;;;15.80;99.90;;;15.86;100.00;97811.31;5204373;28;20061;-48
2023/10/20 02:30:06;;;;;;;3.15;2.00;;;15.80;99.90;;;15.88;100.00;97798.97;5206206;28;20045;-47
2023/10/20 02:32:38;;;;;;;3.15;1.92;;;15.80;99.90;;;15.86;100.00;97800.78;5197343;28;20046;-48
2023/10/20 02:35:12;;;;;;;2.63;1.92;;;15.80;99.90;;;15.85;100.00;97788.56;5202048;28;20053;-47
2023/10/20 02:37:44;;;;;;;4.13;2.20;;;15.80;99.90;;;15.85;100.00;97772.81;5199349;28;20046;-49
2023/10/20 02:40:17;;;;;;;3.03;1.70;;;15.80;99.90;;;15.85;100.00;97766.72;5199734;28;20060;-47
2023/10/20 02:42:52;;;;;;;2.45;1.63;;;15.80;99.90;;;15.83;100.00;97758.88;5198427;28;20141;-47
2023/10/20 02:45:24;;;;;;;3.58;1.98;;;15.80;99.90;;;15.84;100.00;97765.81;5199767;28;20535;-49
2023/10/20 02:47:57;;;;;;;3.00;2.00;;;15.70;99.90;;;15.84;100.00;97760.56;5200240;28;20068;-47
2023/10/20 02:50:29;;;;;;;3.15;1.73;;;15.70;99.90;;;15.83;100.00;97743.09;5200814;28;20064;-47
2023/10/20 02:53:06;;;;;;;3.22;2.00;;;15.80;99.90;;;15.83;100.00;97729.97;5203854;28;20053;-49
2023/10/20 02:55:38;;;;;;;4.45;2.03;;;15.70;99.90;;;15.83;100.00;97734.38;5197322;28;20055;-47
2023/10/20 02:58:13;;;;;;;2.60;1.67;;;15.70;99.90;;;15.82;100.00;97730.88;5204573;28;20041;-47
2023/10/20 03:00:49;;;;;;;3.00;1.80;;;15.70;99.90;;;15.82;100.00;97730.03;5206191;28;20057;-47
2023/10/20 03:03:22;;;;;;;2.92;2.00;;;15.70;99.90;;;15.81;100.00;97737.06;5195015;28;20168;-47
2023/10/20 03:05:54;;;;;;;3.15;1.95;;;15.70;99.90;;;15.82;100.00;97727.41;5199883;28;20128;-47
2023/10/20 03:08:26;;;;;;;3.40;2.03;;;15.70;99.90;;;15.80;100.00;97711.72;5199210;28;20064;-48
2023/10/20 03:10:59;;;;;;;3.22;1.92;;;15.70;99.90;;;15.81;100.00;97696.81;5204224;28;20053;-47
2023/10/20 03:13:33;;;;;;;3.65;2.33;;;15.70;99.90;;;15.83;100.00;97690.59;5206430;28;20049;-48
2023/10/20 03:16:06;;;;;;;3.55;1.63;;;15.70;99.90;;;15.81;100.00;97684.53;5201003;28;20144;-48
2023/10/20 03:18:39;;;;;;;3.17;2.00;;;15.70;99.90;;;15.80;100.00;97676.72;5202428;28;20038;-48
2023/10/20 03:21:11;;;;;;;3.72;2.90;;;15.70;99.90;;;15.80;100.00;97668.84;5204814;28;20041;-48
2023/10/20 03:23:43;;;;;;;2.75;2.22;;;15.70;99.90;;;15.80;100.00;97672.31;5198840;28;20409;-49
2023/10/20 03:26:16;;;;;;;5.20;2.60;;;15.70;99.90;;;15.81;100.00;97660.06;5202928;28;20053;-48
2023/10/20 03:28:50;;;;;;;5.13;2.92;;;15.70;99.90;;;15.84;100.00;97665.19;5198442;28;20041;-48
2023/10/20 03:31:22;;;;;;;5.07;2.97;;;15.80;99.90;;;15.86;100.00;97666.84;5198792;28;20046;-47
2023/10/20 03:33:55;;;;;;;4.82;2.42;;;15.80;99.90;;;15.85;100.00;97673.03;5199613;28;20041;-48
2023/10/20 03:36:28;;;;;;;6.63;3.35;;;15.80;99.90;;;15.85;100.00;97654.66;5202843;28;20046;-48
2023/10/20 03:39:14;;;;;;;4.45;2.45;;;15.80;99.90;;;15.82;100.00;97656.50;5202174;28;20053;-47
2023/10/20 03:41:46;;;;;;;4.70;2.83;;;15.70;99.90;;;15.83;100.00;97656.44;5191202;28;20065;-48
2023/10/20 03:44:22;;;;;;;3.08;2.05;;;15.80;99.90;;;15.82;100.00;97660.00;5203168;28;20045;-48
2023/10/20 03:46:57;;;;;;;3.30;2.05;;;15.70;99.90;;;15.82;100.00;97657.38;5204027;28;20140;-48
2023/10/20 03:49:33;;;;;;;3.75;2.20;;;15.70;99.90;;;15.82;100.00;97646.00;5197299;28;20123;-49
2023/10/20 03:52:11;;;;;;;3.35;2.22;;;15.70;99.90;;;15.82;100.00;97641.59;5196957;28;20049;-49
2023/10/20 03:54:44;;;;;;;3.78;2.50;;;15.70;99.90;;;15.82;100.00;97640.75;5200275;28;20049;-48
2023/10/20 03:57:17;;;;;;;5.47;3.00;;;15.70;99.90;;;15.82;100.00;97620.59;5204855;28;20471;-48
2023/10/20 03:59:50;;;;;;;4.13;2.22;;;15.70;99.90;;;15.82;100.00;97609.25;5200407;28;20080;-48
2023/10/20 04:02:23;;;;;;;3.97;2.67;;;15.70;99.90;;;15.79;100.00;97607.59;5199477;28;20069;-48
2023/10/20 04:04:55;;;;;;;3.58;2.40;;;15.70;99.90;;;15.77;100.00;97617.28;5200944;28;20060;-49
2023/10/20 04:07:28;;;;;;;3.58;2.05;;;15.70;99.90;;;15.77;100.00;97606.78;5197696;28;20132;-48
2023/10/20 04:10:01;;;;;;;3.22;2.08;;;15.70;99.90;;;15.76;100.00;97594.56;5204203;28;20127;-49
2023/10/20 04:12:33;;;;;;;3.15;2.08;;;15.70;99.90;;;15.74;100.00;97589.38;5196745;28;20048;-48
2023/10/20 04:15:13;;;;;;;3.40;2.15;;;15.70;99.90;;;15.74;100.00;97585.91;5195969;28;20049;-48
2023/10/20 04:17:51;;;;;;;3.10;2.03;;;15.70;99.90;;;15.72;100.00;97583.34;5197923;28;20513;-49
2023/10/20 04:20:24;;;;;;;3.47;2.53;;;15.70;99.90;;;15.72;100.00;97562.34;5200349;28;20064;-48
2023/10/20 04:22:58;;;;;;;3.08;2.17;;;15.70;99.90;;;15.71;100.00;97559.72;5200107;28;20068;-49
2023/10/20 04:25:33;;;;;;;4.07;1.88;;;15.60;99.90;;;15.69;100.00;97551.94;5196242;28;20060;-48
2023/10/20 04:28:12;;;;;;;4.78;2.13;;;15.70;99.90;;;15.69;100.00;97546.69;5195174;28;20053;-48
2023/10/20 04:45:19;;;;;;;3.20;1.92;;;15.60;99.90;;;15.60;100.00;97478.75;5194297;28;20046;-48
2023/10/20 04:51:08;;;;;;;5.22;2.40;;;15.50;99.90;;;15.58;100.00;97475.31;5211990;28;20053;-48
2023/10/20 04:53:52;;;;;;;2.60;1.88;;;15.50;99.90;;;15.57;100.00;97459.63;5199403;28;20135;-48
2023/10/20 04:56:37;;;;;;;4.18;2.10;;;15.50;99.90;;;15.56;100.00;97463.16;5197938;28;20041;-48
2023/10/20 04:59:21;;;;;;;2.40;2.05;;;15.50;99.90;;;15.54;100.00;97444.00;5202830;28;20050;-48
2023/10/20 05:01:58;;;;;;;3.00;1.80;;;15.50;99.90;;;15.53;100.00;97430.03;5210899;28;20425;-48
2023/10/20 05:04:37;;;;;;;3.22;2.13;;;15.50;99.90;;;15.55;100.00;97433.44;5194586;28;20049;-49
2023/10/20 05:07:12;;;;;;;2.92;1.92;;;15.50;99.90;;;15.52;100.00;97420.44;5194021;28;20045;-48
2023/10/20 05:09:50;;;;;;;2.53;1.77;;;15.50;99.90;;;15.52;100.00;97428.31;5203435;28;20513;-48
2023/10/20 05:12:22;;;;;;;4.57;2.25;;;15.50;99.90;;;15.52;100.00;97416.94;5204956;28;20060;-48
2023/10/20 05:14:54;;;;;;;4.47;3.00;;;15.50;99.90;;;15.50;100.00;97409.13;5199771;28;20380;-48
2023/10/20 05:17:29;;;;;;;3.03;2.22;;;15.50;99.90;;;15.51;100.00;97399.47;5209716;28;20049;-48
2023/10/20 05:20:05;;;;;;;;;;;15.40;99.90;;;15.50;100.00;97392.53;5206971;28;20060;-48
2023/10/20 05:22:37;;;;;;;3.13;2.00;;;15.40;99.90;;;15.50;100.00;97387.28;5199896;28;19929;-48
2023/10/20 05:25:12;;;;;;;2.65;2.03;;;15.50;99.90;;;15.47;100.00;97378.63;5209661;28;20060;-48
2023/10/20 05:27:46;;;;;;;4.03;1.77;;;15.40;99.90;;;15.47;100.00;97383.03;5208735;28;20053;-49
2023/10/20 05:30:18;;;;;;;2.83;1.73;;;15.50;99.90;;;15.45;100.00;97364.72;5201671;28;20413;-49
2023/10/20 05:32:50;;;;;;;4.60;1.85;;;15.40;99.90;;;15.44;100.00;97334.13;5201976;28;20057;-48
2023/10/20 05:35:24;;;;;;;4.10;1.75;;;15.40;99.90;;;15.43;100.00;97345.53;5207870;28;20512;-48
2023/10/20 05:37:56;;;;;;;2.55;1.50;;;15.40;99.90;;;15.44;100.00;97372.63;5210957;28;20447;-48
2023/10/20 05:40:29;;;;;;;2.10;1.60;;;15.40;99.90;;;15.44;100.00;97380.50;5154084;28;20500;-48
2023/10/20 05:43:03;;;;;;;2.53;1.67;;;15.40;99.90;;;15.44;100.00;97377.88;5198496;28;20046;-48
2023/10/20 05:45:39;;;;;;;3.15;1.88;;;15.40;99.90;;;15.44;100.00;97377.88;5203172;28;20420;-48
2023/10/20 05:48:12;;;;;;;2.75;1.70;;;15.40;99.90;;;15.44;100.00;97368.22;5197714;28;20053;-48
2023/10/20 05:50:46;;;;;;;2.70;1.80;;;15.40;99.90;;;15.43;100.00;97371.78;5200651;28;20041;-48
2023/10/20 05:53:18;;;;;;;2.80;1.35;;;15.40;99.90;;;15.44;100.00;97360.34;5210058;28;20056;-48
2023/10/20 05:55:51;;;;;;;2.55;1.50;;;15.40;99.90;;;15.44;100.00;97367.38;5200934;28;20045;-48
2023/10/20 05:58:23;;;;;;;3.15;1.63;;;15.40;99.90;;;15.42;100.00;97354.31;5207922;28;20057;-48
2023/10/20 06:00:55;;;;;;;2.20;1.65;;;15.40;99.90;;;15.42;100.00;97359.56;5197164;28;20054;-49
2023/10/20 06:03:31;;;;;;;1.73;1.58;;;15.40;99.90;;;15.41;100.00;97373.63;5203140;28;20056;-48
2023/10/20 06:06:05;;;;;;;2.67;1.50;;;15.40;99.90;;;15.42;100.00;97362.19;5202104;28;20393;-48
2023/10/20 06:08:38;;;;;;;3.20;1.60;;;15.40;99.90;;;15.43;100.00;97365.66;5197084;28;20053;-49
2023/10/20 06:11:10;;;;;;;3.40;1.60;;;15.40;99.90;;;15.43;100.00;97353.41;5208821;28;20053;-49
2023/10/20 06:13:43;;;;;;;2.80;1.65;;;15.40;99.90;;;15.43;100.00;97337.66;5200882;28;20045;-48
2023/10/20 06:16:16;;;;;;;3.40;1.70;;;15.40;99.90;;;15.41;100.00;97336.88;5209228;28;20045;-49
2023/10/20 06:18:49;;;;;;;2.63;1.50;;;15.40;99.90;;;15.41;100.00;97331.63;5198918;28;20045;-48
2023/10/20 06:21:22;;;;;;;3.40;1.73;;;15.30;99.90;;;15.40;100.00;97350.91;5193994;28;20042;-48
2023/10/20 06:23:55;;;;;;;1.70;1.42;;;15.30;99.90;;;15.38;100.00;97355.34;5200103;28;20050;-49
2023/10/20 06:26:27;;;;;;;3.90;1.95;;;15.30;99.90;;;15.40;100.00;97356.16;5207376;28;20517;-48
2023/10/20 06:29:00;;;;;;;2.63;1.50;;;15.30;99.90;;;15.40;100.00;97352.69;5201368;28;20045;-48
2023/10/20 06:31:42;;;;;;;3.20;1.75;;;15.30;99.90;;;15.39;100.00;97343.97;5198113;28;20058;-48
2023/10/20 06:34:23;;;;;;;3.78;1.73;;;15.40;99.90;;;15.42;100.00;97348.22;5193341;28;20054;-48
2023/10/20 06:37:07;;;;;;;2.28;1.45;;;15.30;99.90;;;15.41;100.00;97334.25;5200735;28;20420;-49
2023/10/20 06:39:39;;;;;;;2.55;1.80;;;15.30;99.90;;;15.42;100.00;97333.34;5199881;28;20056;-49
2023/10/20 06:42:12;;;;;;;2.15;1.48;;;15.40;99.90;;;15.42;100.00;97337.72;5206834;28;20057;-48
2023/10/20 06:44:45;;;;;;;2.65;1.75;;;15.30;99.90;;;15.43;100.00;97339.44;5196188;28;20050;-49
2023/10/20 06:47:21;;;;;;;3.40;2.05;;;15.30;99.90;;;15.40;100.00;97324.69;5192031;28;20088;-48
2023/10/20 06:49:54;;;;;;;2.92;2.00;;;15.30;99.90;;;15.38;100.00;97336.97;5201626;28;20107;-48
2023/10/20 06:52:27;;;;;;;3.65;2.30;;;15.30;99.90;;;15.36;100.00;97328.31;5196066;28;20049;-49
2023/10/20 06:55:00;;;;;;;5.18;2.67;;;15.30;99.90;;;15.35;100.00;97345.00;5201585;28;20049;-48
2023/10/20 06:57:35;;;;;;;3.67;2.45;;;15.30;99.90;;;15.35;100.00;97342.38;5198496;28;20064;-48
2023/10/20 07:00:16;;;;;;;4.43;2.22;;;15.30;99.90;;;15.37;100.00;97329.19;5197076;28;20246;-49
2023/10/20 07:02:48;;;;;;;;;;;15.30;99.90;;;15.34;100.00;97331.94;5194281;28;20412;-49
2023/10/20 07:05:23;;;;;;;3.65;2.08;;;15.30;99.90;;;15.35;100.00;97334.50;5198260;28;19921;-48
2023/10/20 07:07:59;;;;;;;4.55;2.28;;;15.30;99.90;;;15.36;100.00;97333.56;5196807;28;20042;-48
2023/10/20 07:10:37;;;;;;;3.22;2.20;;;15.30;99.90;;;15.40;100.00;97326.44;5201256;28;20416;-48
2023/10/20 07:13:11;;;;;;;4.53;2.50;;;15.30;99.90;;;15.38;100.00;97326.47;5191905;28;20046;-48
2023/10/20 07:15:52;;;;;;;7.53;2.85;;;15.30;99.90;;;15.38;100.00;97318.63;5202733;28;20103;-48
2023/10/20 07:18:24;;;;;;;5.05;2.50;;;15.30;99.90;;;15.40;100.00;97326.44;5200268;28;20049;-48
2023/10/20 07:20:57;;;;;;;5.80;2.92;;;15.30;99.90;;;15.38;100.00;97317.75;5200910;28;20053;-48
2023/10/20 07:23:30;;;;;;;3.88;2.40;;;15.30;99.90;;;15.37;100.00;97327.41;5205377;28;20386;-48
2023/10/20 07:26:03;;;;;;;4.20;2.45;;;15.30;99.90;;;15.37;100.00;97340.53;5197968;28;20535;-48
2023/10/20 07:28:35;;;;;;;4.45;2.40;;;15.30;99.90;;;15.35;100.00;97334.50;5203653;28;20424;-48
2023/10/20 07:31:21;;;;;;;4.20;2.40;;;15.30;99.90;;;15.41;100.00;97333.41;5190934;28;20057;-47
2023/10/20 07:33:53;;;;;;;4.53;2.53;;;15.30;99.90;;;15.44;100.00;97335.88;5197873;28;20072;-49
2023/10/20 07:36:26;;;;;;;4.53;2.55;;;15.30;99.90;;;15.47;100.00;97331.38;5199751;28;20143;-48
2023/10/20 07:39:00;;;;;;;4.13;2.17;;;15.40;99.90;;;15.53;100.00;97327.66;5199706;28;20061;-48
2023/10/20 07:41:32;;;;;;;4.53;1.92;;;15.40;99.90;;;15.58;100.00;97330.09;5202194;28;20052;-48
2023/10/20 07:44:05;;;;;;;3.85;2.40;;;15.50;99.90;;;15.64;100.00;97345.63;5198333;28;20057;-48
2023/10/20 07:46:37;;;;;;;3.45;2.20;;;15.50;99.90;;;15.64;100.00;97343.84;5201076;28;20061;-48
2023/10/20 07:49:11;;;;;;;2.92;1.92;;;15.50;99.90;;;15.65;100.00;97339.47;5198607;28;20524;-48
2023/10/20 07:51:47;;;;;;;2.67;1.95;;;15.60;99.90;;;15.66;100.00;97346.44;5200879;28;20405;-48
2023/10/20 07:54:21;;;;;;;2.97;1.90;;;15.60;99.90;;;15.66;100.00;97335.94;5201336;28;20536;-48
2023/10/20 07:56:53;;;;;;;2.95;1.92;;;15.50;99.90;;;15.66;100.00;97341.19;5204296;28;20115;-48
2023/10/20 07:59:26;;;;;;;3.38;2.10;;;15.60;99.90;;;15.65;100.00;97339.47;5197518;28;20429;-48
2023/10/20 08:01:58;;;;;;;3.15;1.90;;;15.50;99.90;;;15.67;100.00;97342.88;5200855;28;20042;-48
2023/10/20 08:04:31;;;;;;;3.05;2.13;;;15.50;99.90;;;15.68;100.00;97339.34;5202397;28;21337;-48
2023/10/20 08:07:03;;;;;;;4.95;2.33;;;15.60;99.90;;;15.68;100.00;97334.94;5196959;28;20052;-48
2023/10/20 08:09:37;;;;;;;2.88;1.95;;;15.60;99.90;;;15.69;100.00;97327.91;5200604;28;20053;-48
2023/10/20 08:12:09;;;;;;;4.25;1.85;;;15.60;99.90;;;15.71;100.00;97334.84;5191134;28;20091;-48
2023/10/20 08:14:42;;;;;;;3.55;2.25;;;15.60;99.90;;;15.71;100.00;97333.97;5192638;28;20144;-48
2023/10/20 08:17:14;;;;;;;3.95;2.47;;;15.60;99.90;;;15.73;100.00;97342.66;5193919;28;20053;-48
2023/10/20 08:19:47;;;;;;;4.43;2.33;;;15.60;99.90;;;15.74;100.00;97344.34;5199613;28;20049;-48
2023/10/20 08:22:19;;;;;;;3.22;2.00;;;15.60;99.90;;;15.75;100.00;97346.06;5188917;28;20413;-48
2023/10/20 08:24:53;;;;;;;3.17;2.03;;;15.60;99.90;;;15.77;100.00;97343.34;5198806;28;20053;-50
2023/10/20 08:27:25;;;;;;;2.33;1.70;;;15.60;99.90;;;16.01;100.00;97348.47;5194768;28;20132;-49
2023/10/20 08:29:58;;;;;;;4.45;2.25;;;15.80;99.90;;;16.11;100.00;97340.22;5200455;28;20148;-48
2023/10/20 08:32:30;;;;;;;3.97;1.92;;;15.90;99.90;;;16.09;100.00;97352.53;5199765;28;20061;-49
2023/10/20 08:35:03;;;;;;;4.07;2.10;;;15.90;99.90;;;16.04;100.00;97357.13;5196057;28;20429;-48
2023/10/20 08:37:39;;;;;;;4.03;2.65;;;15.90;99.90;;;15.97;100.00;97357.41;5197256;28;20041;-48
2023/10/20 08:40:13;;;;;;;3.80;2.28;;;15.90;99.90;;;15.92;100.00;97363.75;5192701;28;20393;-48
2023/10/20 08:42:46;;;;;;;4.03;2.58;;;15.80;99.90;;;15.89;100.00;97359.47;5203919;28;20056;-48
2023/10/20 08:45:18;;;;;;;3.05;2.10;;;15.80;99.90;;;15.89;100.00;97353.38;5190321;28;20057;-49
2023/10/20 08:47:51;;;;;;;5.90;2.95;;;15.80;99.90;;;15.90;100.00;97360.31;5197753;28;20049;-45
2023/10/20 08:50:25;;;;;;;3.75;2.35;;;15.80;99.90;;;15.94;100.00;97365.38;5110492;28;20049;-48
2023/10/20 08:52:59;;;;;;;4.45;2.42;;;15.80;99.90;;;15.95;100.00;97358.38;5200592;28;20045;-48
2023/10/20 08:55:32;;;;;;;2.97;1.90;;;15.80;99.90;;;15.96;100.00;97358.28;5198160;28;20049;-48
2023/10/20 08:58:06;;;;;;;4.90;2.83;;;15.80;99.90;;;15.93;100.00;97361.06;5199377;28;20045;-48
2023/10/20 09:00:38;;;;;;;5.38;2.60;;;15.80;99.90;;;15.91;100.00;97362.91;5191093;28;20483;-48
2023/10/20 09:03:11;;;;;;;3.03;2.10;;;15.80;99.90;;;15.92;100.00;97369.00;5204107;28;20045;-48
2023/10/20 09:05:43;;;;;;;4.55;3.05;;;15.80;99.90;;;15.87;100.00;97355.22;5204034;28;20041;-48
2023/10/20 09:08:16;;;;;;;5.30;2.75;;;15.80;99.90;;;15.83;100.00;97359.72;5200801;28;20128;-48
2023/10/20 09:10:50;;;;;;;4.55;2.80;;;15.80;99.90;;;15.83;100.00;97358.88;5198301;28;20037;-48
2023/10/20 09:13:24;;;;;;;;;;;15.70;99.90;;;15.81;100.00;97356.31;5200138;28;20049;-48
2023/10/20 09:15:56;;;;;;;4.90;2.70;;;15.80;99.90;;;15.82;100.00;97363.25;5215140;28;20406;-48
2023/10/20 09:18:28;;;;;;;3.90;2.10;;;15.70;99.90;;;15.84;100.00;97363.19;5193740;28;20060;-48
2023/10/20 09:21:04;;;;;;;4.53;3.15;;;15.70;99.90;;;15.84;100.00;97361.41;5203725;28;20041;-48
2023/10/20 09:23:39;;;;;;;4.60;2.97;;;15.80;99.90;;;15.84;100.00;97363.19;5203181;28;20804;-48
2023/10/20 09:26:12;;;;;;;4.53;2.85;;;15.70;99.90;;;15.83;100.00;97354.47;5196887;28;20094;-48
2023/10/20 09:28:48;;;;;;;4.20;2.58;;;15.70;99.90;;;15.83;100.00;97367.59;5198872;28;20053;-48
2023/10/20 09:31:22;;;;;;;3.95;2.60;;;15.70;99.90;;;15.86;100.00;97380.63;5198064;28;20050;-48
2023/10/20 09:33:58;;;;;;;4.25;2.42;;;15.80;99.90;;;15.88;100.00;97373.53;5199839;28;20136;-48
2023/10/20 09:36:32;;;;;;;3.83;2.38;;;15.70;99.90;;;15.94;100.00;97373.28;5192864;28;20054;-48
2023/10/20 09:39:08;;;;;;;3.50;2.30;;;15.80;99.90;;;15.96;100.00;97366.16;5203455;28;20044;-48
2023/10/20 09:41:49;;;;;;;5.00;2.78;;;15.80;99.90;;;15.98;100.00;97367.00;5198026;28;20107;-48
2023/10/20 09:44:33;;;;;;;4.63;2.40;;;15.80;99.90;;;15.96;100.00;97368.81;5202437;28;20049;-48
2023/10/20 09:47:17;;;;;;;5.32;2.90;;;15.80;99.90;;;15.93;100.00;97365.47;5198624;28;20416;-48
2023/10/20 09:49:52;;;;;;;5.18;2.65;;;15.80;99.90;;;15.91;100.00;97362.03;5194188;28;20072;-48
2023/10/20 09:52:24;;;;;;;4.25;2.75;;;15.80;99.90;;;15.89;100.00;97364.72;5199020;28;20065;-48
2023/10/20 09:54:57;;;;;;;8.32;3.35;;;15.80;99.90;;;15.87;100.00;97369.19;5203969;28;20045;-48
2023/10/20 09:57:31;;;;;;;4.63;2.55;;;15.70;99.90;;;15.86;100.00;97358.75;5199796;28;20049;-48
2023/10/20 10:00:08;;;;;;;5.07;2.92;;;15.80;99.90;;;15.86;100.00;97346.47;5202189;28;20042;-48
2023/10/20 10:02:41;;;;;;;49.72;21.63;;;15.80;99.90;;;16.11;100.00;97348.09;5196236;28;20421;-49
2023/10/20 10:05:23;;;;;;;41.55;19.33;;;15.90;99.90;;;16.20;100.00;97356.44;5199769;28;20054;-48
2023/10/20 10:08:07;;;;;;;16.30;8.77;;;16.00;99.90;;;16.15;100.00;97350.50;5196968;28;20049;-48
2023/10/20 10:10:40;;;;;;;12.10;5.95;;;16.10;99.90;;;16.09;100.00;97345.50;5205804;28;20046;-48
2023/10/20 10:13:13;;;;;;;11.82;5.97;;;16.00;99.90;;;16.06;100.00;97334.28;5204331;28;20057;-49
2023/10/20 10:15:47;;;;;;;9.32;4.90;;;16.00;99.90;;;16.06;100.00;97339.53;5198389;28;20042;-49
2023/10/20 10:18:24;;;;;;;11.18;4.63;;;16.00;99.90;;;16.04;100.00;97330.84;5199330;28;20088;-48
2023/10/20 10:21:03;;;;;;;7.05;3.50;;;16.00;99.90;;;16.02;100.00;97329.16;5196644;28;20503;-48
2023/10/20 10:23:35;;;;;;;7.70;3.83;;;15.90;99.90;;;16.05;100.00;97332.59;5203762;28;20532;-48
2023/10/20 10:26:14;;;;;;;8.20;3.92;;;16.00;99.90;;;16.16;100.00;97331.19;5205520;28;20045;-49
2023/10/20 10:28:50;;;;;;;8.25;4.03;;;16.00;99.90;;;16.27;100.00;97328.13;5203148;28;20072;-48
2023/10/20 10:31:34;;;;;;;8.45;3.60;;;16.10;99.90;;;16.30;100.00;97328.00;5206801;28;20037;-48
2023/10/20 10:34:10;;;;;;;6.45;3.47;;;16.10;99.90;;;16.30;100.00;97328.00;5206712;28;20054;-48
2023/10/20 10:36:47;;;;;;;6.30;3.08;;;16.20;99.90;;;16.31;100.00;97332.34;5197290;28;20050;-48
2023/10/20 10:39:27;;;;;;;7.35;3.45;;;16.20;99.90;;;16.29;100.00;97332.38;5209741;28;20038;-48
2023/10/20 10:42:03;;;;;;;5.03;2.83;;;16.20;99.90;;;16.27;100.00;97323.72;5203912;28;20095;-48
2023/10/20 10:44:38;;;;;;;6.30;3.50;;;16.20;99.90;;;16.25;100.00;97314.19;5203580;28;20060;-48
2023/10/20 10:47:19;;;;;;;6.55;3.70;;;16.20;99.90;;;16.18;100.00;97302.25;5211466;28;20464;-48
2023/10/20 10:49:52;;;;;;;10.02;4.45;;;16.10;99.90;;;16.10;100.00;97284.16;5200386;28;20053;-48
2023/10/20 10:52:24;;;;;;;7.00;3.53;;;16.00;99.90;;;16.09;100.00;97278.97;5197448;28;20591;-48
2023/10/20 10:54:58;;;;;;;6.10;3.50;;;16.00;99.90;;;16.05;100.00;97277.44;5207062;28;20418;-48
2023/10/20 10:57:31;;;;;;;7.25;3.83;;;16.00;99.90;;;16.01;100.00;97268.81;5202702;28;20072;-48
2023/10/20 11:00:07;;;;;;;9.60;3.75;;;16.00;99.90;;;15.97;100.00;97272.47;5203741;28;20052;-50